Latest Weather Observations for Fortescue Dave Forrest

IDW60801

Issued at 9:32 am WST Wednesday 1 June 2016 (issued every 30 minutes, with the page automatically refreshed every 10 minutes)

About weather observations | Map of weather stations | Latest weather observations for WA | Other Formats
Station Details ID: 505056 Name: FORTESCUE DAVE FORREST Lat: -22.29 Lon: 119.43 Height: 474.6 m
Data from the previous 72 hours. | See also: Recent months for locations in Western Australia
Date/Time
WST
Temp
°C
App
Temp
°C
Dew
Point
Rel
Hum
%
Delta-T
°C
Wind Press
QNH
hPa
Press
MSL
hPa
Rain
since 9 am
mm
Dir
 
Spd
km/h
Gust
km/h
Spd
kts
Gust
kts
01/09:30am 23.5 23.4 10.9 45 7.1 SW 2 4 1 2 1017.7 1016.9 0.0
01/09:00am 22.6 22.2 11.0 48 6.6 WSW 4 6 2 3 1017.8 1017.0 0.0
01/08:30am 21.1 21.2 11.4 54 5.5 NW 2 6 1 3 1017.6 1016.8 0.0
01/08:00am 19.9 19.0 11.4 58 4.8 N 7 11 4 6 1017.3 1016.5 0.0
01/07:30am 17.3 17.3 11.1 67 3.4 N 2 6 1 3 1017.0 1015.3 0.0
01/07:00am 16.4 16.4 11.1 71 2.9 NE 2 7 1 4 1016.7 1015.0 0.0
01/06:30am 15.0 13.8 10.2 73 2.6 NNW 7 11 4 6 1016.6 1014.9 0.0
01/06:00am 15.4 15.1 10.2 71 2.8 N 2 4 1 2 1016.1 1014.4 0.0
01/05:30am 16.0 14.3 9.9 67 3.3 N 9 11 5 6 1016.0 1014.3 0.0
01/05:00am 16.0 14.9 9.9 67 3.3 N 6 7 3 4 1015.7 1014.0 0.0
01/04:30am 16.4 15.1 9.8 65 3.5 NNE 7 9 4 5 1015.4 1013.7 0.0
01/04:00am 17.0 15.7 9.9 63 3.8 NNW 7 9 4 5 1015.4 1013.7 0.0
01/03:30am 17.1 15.3 9.5 61 4.1 NNE 9 11 5 6 1015.5 1013.8 0.0
01/03:00am 17.5 16.3 9.7 60 4.2 WNW 6 7 3 4 1015.4 1013.7 0.0
01/02:30am 17.8 16.4 9.4 58 4.5 NNW 7 9 4 5 1015.4 1013.7 0.0
01/02:00am 19.0 17.8 9.5 54 5.1 NW 6 11 3 6 1015.8 1014.1 0.0
01/01:30am 19.4 18.2 9.6 53 5.3 NW 6 9 3 5 1016.2 1014.5 0.0
01/01:00am 20.1 17.5 9.4 50 5.8 NW 13 17 7 9 1016.2 1014.5 0.0
01/12:30am 20.4 18.2 9.3 49 6.0 NW 11 17 6 9 1016.3 1014.6 0.0
01/12:00am 20.6 18.4 9.5 49 6.1 WNW 11 17 6 9 1016.4 1014.7 0.0
 
Date/Time
WST
Temp
°C
App
Temp
°C
Dew
Point
Rel
Hum
%
Delta-T
°C
Wind Press
QNH
hPa
Press
MSL
hPa
Rain
since 9 am
mm
Dir
 
Spd
km/h
Gust
km/h
Spd
kts
Gust
kts
31/11:30pm 21.3 19.0 10.5 50 6.0 NW 13 19 7 10 1016.5 1014.8 0.0
31/11:00pm 21.7 19.6 11.1 51 6.0 NW 13 20 7 11 1016.7 1015.0 0.0
31/10:30pm 22.3 19.9 11.4 50 6.2 NW 15 22 8 12 1016.8 1015.1 0.0
31/10:00pm 22.7 19.9 11.4 49 6.4 NW 17 24 9 13 1016.7 1015.0 0.0
31/09:30pm 22.7 20.4 10.5 46 6.9 NNW 13 15 7 8 1016.6 1014.9 0.0
31/09:00pm 24.0 21.0 10.7 43 7.5 NW 17 22 9 12 1016.5 1014.8 0.0
31/08:30pm 23.7 21.4 10.4 43 7.5 NW 13 17 7 9 1016.4 1014.7 0.0
31/08:00pm 23.7 22.0 10.0 42 7.7 WNW 9 11 5 6 1016.2 1014.5 0.0
31/07:30pm 24.0 22.6 9.6 40 8.0 NW 7 7 4 4 1015.9 1014.2 0.0
31/07:00pm 24.6 22.8 9.3 38 8.5 NW 9 11 5 6 1015.8 1014.1 0.0
31/06:30pm 24.9 23.0 9.2 37 8.7 NW 9 11 5 6 1015.3 1013.6 0.0
31/06:00pm 25.9 24.1 9.3 35 9.3 NW 9 13 5 7 1014.9 1013.2 0.0
31/05:30pm 27.3 24.8 9.6 33 10.0 NW 13 19 7 10 1014.5 1012.8 0.0
31/05:00pm 28.2 25.3 9.5 31 10.6 NW 15 22 8 12 1014.3 1012.6 0.0
31/04:30pm 29.1 25.5 8.2 27 11.7 NW 17 24 9 13 1014.0 1012.3 0.0
31/04:00pm 29.8 25.7 7.7 25 12.3 NW 19 26 10 14 1013.8 1012.1 0.0
31/03:30pm 29.8 25.9 7.1 24 12.5 WNW 17 30 9 16 1013.7 1011.9 0.0
31/03:00pm 29.5 25.4 8.0 26 12.0 NW 19 33 10 18 1013.7 1011.9 0.0
31/02:30pm 29.7 25.8 8.7 27 11.8 NW 19 33 10 18 1013.7 1011.9 0.0
31/02:00pm 29.0 26.0 9.2 29 11.2 N 15 28 8 15 1013.9 1012.2 0.0
31/01:30pm 29.0 25.6 9.2 29 11.2 NW 17 28 9 15 1014.0 1012.3 0.0
31/01:00pm 29.0 25.4 9.7 30 11.0 NW 19 30 10 16 1014.5 1012.8 0.0
31/12:30pm 28.4 24.7 9.6 31 10.7 NW 19 30 10 16 1014.9 1013.2 0.0
31/12:00pm 28.3 25.8 8.1 28 11.2 NNW 11 19 6 10 1015.3 1013.6 0.0
31/11:30am 27.8 24.3 8.6 30 10.7 NW 17 28 9 15 1015.7 1014.0 0.0
31/11:00am 27.1 24.4 9.0 32 10.1 N 13 24 7 13 1016.1 1014.4 0.0
31/10:30am 26.9 24.1 8.4 31 10.2 NNW 13 20 7 11 1016.4 1014.7 0.0
31/10:00am 26.4 23.3 7.4 30 10.3 NNW 13 20 7 11 1016.7 1015.0 0.0
31/09:30am 25.7 23.7 8.7 34 9.4 NNE 9 13 5 7 1016.8 1015.1 0.0
31/09:00am 24.3 22.9 9.5 39 8.2 N 7 11 4 6 1016.8 1015.1 0.0
31/08:30am 22.7 21.4 9.8 44 7.2 NE 7 11 4 6 1016.6 1014.9 0.0
31/08:00am 20.9 19.7 10.4 51 5.8 NNE 7 13 4 7 1016.3 1014.6 0.0
31/07:30am 19.4 18.7 10.1 55 5.1 NNE 4 6 2 3 1016.1 1014.4 0.0
31/07:00am 17.7 16.6 9.8 60 4.3 NNE 6 7 3 4 1015.9 1014.2 0.0
31/06:30am 16.7 15.6 10.1 65 3.6 N 6 7 3 4 1015.5 1013.8 0.0
31/06:00am 16.3 15.2 9.9 66 3.4 NNE 6 7 3 4 1015.1 1013.4 0.0
31/05:30am 16.9 15.2 9.8 63 3.8 N 9 9 5 5 1014.9 1013.2 0.0
31/05:00am 16.9 15.8 9.8 63 3.8 N 6 7 3 4 1014.7 1013.0 0.0
31/04:30am 17.5 16.6 9.4 59 4.3 NNE 4 6 2 3 1014.6 1012.9 0.0
31/04:00am 18.3 16.5 9.4 56 4.8 NNW 9 11 5 6 1014.6 1012.9 0.0
31/03:30am 18.3 17.0 9.1 55 4.9 NW 6 7 3 4 1014.7 1013.0 0.0
31/03:00am 18.5 16.9 8.7 53 5.2 NW 7 9 4 5 1014.7 1013.0 0.0
31/02:30am 19.0 17.1 8.9 52 5.4 NW 9 11 5 6 1014.8 1013.1 0.0
31/02:00am 20.3 17.5 8.6 47 6.3 WNW 13 17 7 9 1015.2 1013.5 0.0
31/01:30am 20.7 17.6 8.7 46 6.5 WNW 15 19 8 10 1015.3 1013.6 0.0
31/01:00am 20.6 17.8 8.6 46 6.4 WNW 13 19 7 10 1015.3 1013.6 0.0
31/12:30am 21.3 18.1 8.6 44 6.8 NW 15 22 8 12 1015.1 1013.4 0.0
31/12:00am 21.8 17.8 8.3 42 7.3 NW 19 24 10 13 1015.2 1013.5 0.0
 
Date/Time
WST
Temp
°C
App
Temp
°C
Dew
Point
Rel
Hum
%
Delta-T
°C
Wind Press
QNH
hPa
Press
MSL
hPa
Rain
since 9 am
mm
Dir
 
Spd
km/h
Gust
km/h
Spd
kts
Gust
kts
30/11:30pm 21.8 18.9 8.0 41 7.4 NW 13 17 7 9 1015.4 1013.7 0.0
30/11:00pm 22.4 19.8 7.8 39 7.8 NW 11 15 6 8 1015.4 1013.7 0.0
30/10:30pm 23.4 19.9 7.1 35 8.7 NW 15 20 8 11 1015.5 1013.8 0.0
30/10:00pm 23.2 20.8 6.9 35 8.6 NW 9 17 5 9 1015.3 1013.6 0.0
30/09:30pm 22.6 20.2 6.8 36 8.3 NW 9 11 5 6 1015.5 1013.8 0.0
30/09:00pm 22.6 20.5 6.8 36 8.3 NW 7 9 4 5 1015.7 1014.0 0.0
30/08:30pm 22.5 20.4 6.7 36 8.3 NNW 7 11 4 6 1015.5 1013.8 0.0
30/08:00pm 23.2 21.3 6.5 34 8.8 NNW 6 7 3 4 1015.5 1013.8 0.0
30/07:30pm 23.8 21.3 6.6 33 9.1 NNW 9 11 5 6 1015.3 1013.6 0.0
30/07:00pm 25.1 22.2 6.3 30 9.9 NW 11 17 6 9 1015.1 1013.4 0.0
30/06:30pm 25.1 22.4 5.8 29 10.1 NNW 9 11 5 6 1014.7 1013.0 0.0
30/06:00pm 25.5 22.4 5.7 28 10.4 NW 11 15 6 8 1014.5 1012.8 0.0
30/05:30pm 26.8 23.4 5.7 26 11.1 NW 13 20 7 11 1014.0 1012.3 0.0
30/05:00pm 27.6 23.4 5.8 25 11.6 NW 17 22 9 12 1013.9 1012.2 0.0
30/04:30pm 28.4 23.9 5.9 24 12.0 NNW 19 26 10 14 1013.5 1011.7 0.0
30/04:00pm 28.8 23.2 5.6 23 12.4 NNW 24 35 13 19 1013.1 1011.4 0.0
30/03:30pm 29.8 24.8 6.5 23 12.7 NW 22 35 12 19 1012.8 1011.1 0.0
30/03:00pm 30.1 25.5 5.4 21 13.2 NW 19 35 10 19 1012.7 1011.0 0.0
30/02:30pm 29.9 24.4 5.9 22 12.9 NW 24 37 13 20 1012.7 1011.0 0.0
30/02:00pm 29.5 26.8 7.4 25 12.2 W 11 30 6 16 1012.8 1011.1 0.0
30/01:30pm 29.3 27.5 7.2 25 12.1 SSW 6 15 3 8 1012.9 1011.2 0.0
30/01:00pm 28.0 24.5 7.3 27 11.3 SW 15 24 8 13 1013.5 1011.7 0.0
30/12:30pm 27.9 24.9 7.7 28 11.1 WSW 13 22 7 12 1013.9 1012.2 0.0
30/12:00pm 27.4 25.3 8.3 30 10.6 WSW 9 19 5 10 1014.5 1012.8 0.0
30/11:30am 27.3 25.1 7.7 29 10.7 WSW 9 17 5 9 1015.0 1013.3 0.0
30/11:00am 26.0 24.1 8.9 34 9.5 SW 9 13 5 7 1015.0 1013.3 0.0
30/10:30am 25.8 24.4 9.6 36 9.1 SW 7 11 4 6 1015.1 1013.4 0.0
30/10:00am 24.9 23.8 10.0 39 8.4 SW 6 9 3 5 1015.5 1013.8 0.0
30/09:30am 23.8 23.6 10.5 43 7.5 WNW 2 6 1 3 1015.8 1014.1 0.0
30/09:00am 20.9 21.0 11.5 55 5.3 WSW 2 4 1 2 1015.8 1014.1 0.0
30/08:30am 19.3 19.3 12.3 64 4.0 SSW 4 6 2 3 1015.7 1014.0 0.0
30/08:00am 18.1 18.7 13.0 72 2.9 SSW 2 4 1 2 1015.7 1014.0 0.0
30/07:30am 17.0 17.2 11.7 71 3.0 WSW 2 4 1 2 1015.2 1013.5 0.0
30/07:00am 15.3 15.3 11.1 76 2.3 SW 2 6 1 3 1014.9 1013.2 0.0
30/06:30am 15.0 14.8 10.6 75 2.4 WNW 2 2 1 1 1014.5 1012.8 0.0
30/06:00am 16.7 16.1 10.3 66 3.5 NNW 4 6 2 3 1014.4 1012.7 0.0
30/05:30am 15.6 14.7 10.8 73 2.6 NW 6 7 3 4 1014.1 1012.4 0.0
30/05:00am 15.4 14.8 10.4 72 2.7 NNW 4 6 2 3 1014.0 1012.3 0.0
30/04:30am 14.7 14.1 10.3 75 2.4 NNW 4 6 2 3 1013.9 1012.2 0.0
30/04:00am 16.5 16.5 11.0 70 3.0 NE 2 6 1 3 1014.0 1012.3 0.0
30/03:30am 16.9 16.7 10.5 66 3.5 N 2 4 1 2 1014.3 1012.6 0.0
30/03:00am 16.3 15.3 10.2 67 3.3 NNW 6 6 3 3 1014.4 1012.7 0.0
30/02:30am 17.4 17.2 10.5 64 3.8 NNW 2 4 1 2 1014.3 1012.6 0.0
30/02:00am 18.4 18.4 11.2 63 4.0 E 2 4 1 2 1014.5 1012.8 0.0
30/01:30am 19.5 18.8 10.2 55 5.1 SE 4 4 2 2 1014.6 1012.9 0.0
30/01:00am 20.3 19.2 10.1 52 5.6 SSW 6 7 3 4 1014.8 1013.1 0.0
30/12:30am 20.5 19.9 10.3 52 5.6 N 4 9 2 5 1014.7 1013.0 0.0
30/12:00am 22.0 20.3 9.9 46 6.7 NW 9 15 5 8 1014.7 1013.0 0.0
 
Date/Time
WST
Temp
°C
App
Temp
°C
Dew
Point
Rel
Hum
%
Delta-T
°C
Wind Press
QNH
hPa
Press
MSL
hPa
Rain
since 9 am
mm
Dir
 
Spd
km/h
Gust
km/h
Spd
kts
Gust
kts
29/11:30pm 21.5 21.0 12.1 55 5.4 NW 6 11 3 6 1015.1 1013.4 0.0
29/11:00pm 21.2 21.0 12.9 59 4.8 NNW 6 9 3 5 1015.1 1013.4 0.0
29/10:30pm 21.2 21.0 12.9 59 4.8 NW 6 7 3 4 1015.2 1013.5 0.0
29/10:00pm 20.4 20.6 12.9 62 4.3 NNW 4 6 2 3 1015.1 1013.4 0.0
29/09:30pm 20.9 21.1 13.1 61 4.5 NNE 4 7 2 4 1014.9 1013.2 0.0
29/09:00pm 21.3 21.3 12.4 57 5.1 N 4 7 2 4 1015.1 1013.4 0.0
29/08:30pm 21.3 21.9 13.2 60 4.7 NNE 2 4 1 2 1015.1 1013.4 0.0
29/08:00pm 22.6 23.2 13.1 55 5.6 NNE 2 6 1 3 1014.9 1013.2 0.0
29/07:30pm 22.4 22.7 13.5 57 5.3 NW 4 6 2 3 1014.7 1013.0 0.0
29/07:00pm 23.9 24.4 12.8 49 6.5 ESE 2 4 1 2 1014.4 1012.7 0.0
29/06:30pm 25.2 25.3 12.8 46 7.3 E 4 6 2 3 1014.3 1012.6 0.0
29/06:00pm 25.5 26.0 12.7 45 7.6 SSW 2 6 1 3 1014.0 1012.3 0.0
29/05:30pm 26.6 25.7 12.6 42 8.3 SW 9 13 5 7 1013.9 1012.2 0.0
29/05:00pm 27.4 26.0 12.2 39 9.0 SSW 11 17 6 9 1013.7 1011.9 0.0
29/04:30pm 28.0 26.3 12.4 38 9.3 SSW 13 19 7 10 1013.3 1011.6 0.0
29/04:00pm 27.9 26.8 11.9 37 9.4 SW 9 17 5 9 1012.9 1011.2 0.0
29/03:30pm 28.4 26.4 10.1 32 10.5 SW 11 19 6 10 1012.8 1011.1 0.0
29/03:00pm 28.6 27.3 11.2 34 10.2 SW 9 13 5 7 1012.8 1011.1 0.0
29/02:30pm 28.6 25.6 9.3 30 10.9 WNW 15 26 8 14 1013.0 1011.3 0.0
29/02:00pm 27.8 27.8 13.7 42 8.5 ENE 6 9 3 5 1013.1 1011.4 0.0
29/01:30pm 28.1 28.5 14.7 44 8.3 W 6 15 3 8 1013.3 1011.6 0.0
29/01:00pm 26.8 27.1 14.9 48 7.3 SW 7 13 4 7 1013.9 1012.2 0.0
29/12:30pm 26.5 27.3 14.9 49 7.1 SSW 4 11 2 6 1014.5 1012.8 0.0
29/12:00pm 25.8 26.7 15.2 52 6.5 ESE 4 7 2 4 1015.2 1013.5 0.0
29/11:30am 24.0 24.5 15.0 57 5.5 ESE 6 11 3 6 1015.7 1014.0 0.0
29/11:00am 23.4 23.9 14.9 59 5.2 ESE 6 9 3 5 1016.2 1014.5 0.0
29/10:30am 22.8 23.3 14.1 58 5.2 SSE 4 9 2 5 1016.4 1014.7 0.0
29/10:00am 21.6 20.5 13.0 58 5.0 SE 11 17 6 9 1016.7 1015.0 0.0

Other Formats:

Comma delimited format used in spreadsheet applications
http://www.bom.gov.au/fwo/IDW60801/IDW60801.99736.axf

JavaScript Object Notation format (JSON) in row-major order
http://www.bom.gov.au/fwo/IDW60801/IDW60801.99736.json